Pilot Station, Alaska
Current Conditions -  °F | °C
As of 1:36 PM on Friday 31 Oct 2014 (Local Time) from PASM Reporting Station
Broken Clouds Broken Clouds  
Wind Chill: -18°   Ceiling: 2000
Heat Index: -10°   Visibility: 10mi
Dew Point: -14°   Wind: 14mph
Humidity: 73%   Direction: 40°NE
Pressure: 29.22"   Gusts: 20mph
Location:  61.94°N, 162.88°W
Report Text: PASM 312136Z AUTO 04012G17KT 10SM BKN020 M10/M14 A2922 RMK AO1
Loading
Personal Weather Stations






























Interactive Weather Map
Tropical Storm Tracking
New forecast layout! Learn more

10-Day Weather Forecast

Advertisements
Track Severe Weather on mobile